Baghdad, Iraq

11:53 AM AST on August 30, 2014 (GMT +0300)
BAGHDAD INTL | Change Station
CLOSE
Current Station
Airport
Location: BAGHDAD INTL,
Elevation: 115 ft
Nearby Weather Stations

Elev 115 ft 33.26 °N, 44.23 °E | Updated 23 minutes ago

Clear
Clear
109 °F
Feels Like 109 °F
N
10
Wind Variable Wind from NNE

Today
High -- | Low -- °F
--% Chance of Precip.
Yesterday
High -- | Low -- °F
Precip. -- in
5:35 AM 6:31 PM
Waxing Crescent, 20% visible
Pressure 29.62 in
Visibility -9999.0 miles
Clouds
Dew Point 46 °F
Humidity 12%
Rainfall 0.00 in
Snow Depth Not available.
UV Not available.
Pollen Not available.
Air Quality Not available.
Flu Activity Not available.
METAR ORBI 300830Z 03009KT CAVOK 43/08 Q1003

More Conditions Fewer Conditions

Pressure 29.62 in
Visibility -9999.0 miles
Clouds
Dew Point 46 °F
Humidity 12%
Rainfall 0.00 in
Snow Depth Not available.
UV Not available.
Pollen Not available.
Air Quality Not available.
Flu Activity Not available.
METAR ORBI 300830Z 03009KT CAVOK 43/08 Q1003

More Conditions Fewer Conditions

10-Day Weather Forecast

Almanac

Astronomy

Aug. 30, 2014 Rise Set
Actual Time 5:35 AM AST 6:31 PM AST
Civil Twilight 5:10 AM AST 6:56 PM AST
Nautical Twilight 4:40 AM AST 7:26 PM AST
Astronomical Twilight 4:09 AM AST 7:57 PM AST
Moon 9:46 AM AST 9:07 PM AST
Length of Visible Light 13h 46m
Length of Day
12h 55m
Tomorrow will be 1m 57s shorter.
Waxing Crescent, 20% of the Moon is Illuminated
Today
Waxing Crescent
Sep 2
First Quarter
Sep 8
Full
Sep 15
Last Quarter
Sep 24
New

Yesterday's Extremes

Country Highs Country Lows

Community

WunderPhotos

Upload Photos

1,748,474 photos uploaded!

Nearby

Snow Depth

Not available.

Earthquake Activity

City Distance Mag. Time & Date
No recent earthquake activity has been reported nearby.
Minimum magnitude displayed is 2.5.

Coastal Water Temperatures

Place Temperature
No Stations Reporting

Nearby Weather Stations